sensor_id;sensor_type;location;lat;lon;timestamp;pressure;altitude;pressure_sealevel;temperature;humidity
55466;BME280;41329;41.594;23.810;2023-02-04T00:02:15;95210.66;;;2.08;55.04
55466;BME280;41329;41.594;23.810;2023-02-04T00:04:41;95205.72;;;2.10;54.98
55466;BME280;41329;41.594;23.810;2023-02-04T00:07:06;95177.63;;;1.93;54.99
55466;BME280;41329;41.594;23.810;2023-02-04T00:09:32;95201.34;;;2.09;54.87
55466;BME280;41329;41.594;23.810;2023-02-04T00:11:57;95190.63;;;2.13;54.79
55466;BME280;41329;41.594;23.810;2023-02-04T00:14:23;95197.03;;;2.17;54.93
55466;BME280;41329;41.594;23.810;2023-02-04T00:16:48;95196.38;;;2.20;55.07
55466;BME280;41329;41.594;23.810;2023-02-04T00:19:14;95177.75;;;2.22;54.81
55466;BME280;41329;41.594;23.810;2023-02-04T00:21:41;95189.16;;;2.15;54.73
55466;BME280;41329;41.594;23.810;2023-02-04T00:24:06;95171.97;;;2.15;54.87
55466;BME280;41329;41.594;23.810;2023-02-04T00:26:32;95128.03;;;1.82;55.07
55466;BME280;41329;41.594;23.810;2023-02-04T00:28:57;95176.31;;;2.16;55.36
55466;BME280;41329;41.594;23.810;2023-02-04T00:31:23;95173.09;;;2.05;54.92
55466;BME280;41329;41.594;23.810;2023-02-04T00:33:49;95179.19;;;2.11;55.58
55466;BME280;41329;41.594;23.810;2023-02-04T00:36:14;95174.88;;;2.01;55.81
55466;BME280;41329;41.594;23.810;2023-02-04T00:38:40;95184.84;;;2.06;55.63
55466;BME280;41329;41.594;23.810;2023-02-04T00:41:05;95181.78;;;2.07;55.78
55466;BME280;41329;41.594;23.810;2023-02-04T00:43:31;95157.06;;;2.12;55.58
55466;BME280;41329;41.594;23.810;2023-02-04T00:45:56;95163.78;;;2.15;55.74
55466;BME280;41329;41.594;23.810;2023-02-04T00:48:22;95159.94;;;2.24;55.63
55466;BME280;41329;41.594;23.810;2023-02-04T00:50:47;95154.63;;;2.28;55.42
55466;BME280;41329;41.594;23.810;2023-02-04T00:53:13;95158.47;;;2.27;55.26
55466;BME280;41329;41.594;23.810;2023-02-04T00:55:38;95153.38;;;2.17;55.13
55466;BME280;41329;41.594;23.810;2023-02-04T00:58:03;95125.28;;;1.99;55.73
55466;BME280;41329;41.594;23.810;2023-02-04T01:00:29;95141.97;;;2.15;55.92
55466;BME280;41329;41.594;23.810;2023-02-04T01:02:55;95129.44;;;2.14;55.79
55466;BME280;41329;41.594;23.810;2023-02-04T01:05:21;95117.41;;;2.15;55.98
55466;BME280;41329;41.594;23.810;2023-02-04T01:07:46;95124.16;;;2.09;56.65
55466;BME280;41329;41.594;23.810;2023-02-04T01:10:11;95114.34;;;2.08;56.59
55466;BME280;41329;41.594;23.810;2023-02-04T01:12:37;95120.44;;;2.13;56.62
55466;BME280;41329;41.594;23.810;2023-02-04T01:15:03;95126.06;;;2.17;56.03
55466;BME280;41329;41.594;23.810;2023-02-04T01:17:29;95113.72;;;2.11;56.12
55466;BME280;41329;41.594;23.810;2023-02-04T01:19:54;95110.03;;;2.15;55.97
55466;BME280;41329;41.594;23.810;2023-02-04T01:22:20;95115.00;;;2.22;55.96
55466;BME280;41329;41.594;23.810;2023-02-04T01:24:45;95090.75;;;2.12;55.42
55466;BME280;41329;41.594;23.810;2023-02-04T01:27:11;95100.88;;;2.03;56.25
55466;BME280;41329;41.594;23.810;2023-02-04T01:29:36;95089.38;;;1.89;56.49
55466;BME280;41329;41.594;23.810;2023-02-04T01:32:02;95095.28;;;1.99;56.49
55466;BME280;41329;41.594;23.810;2023-02-04T01:34:27;95097.50;;;2.06;56.80
55466;BME280;41329;41.594;23.810;2023-02-04T01:36:55;95082.47;;;2.00;56.84
55466;BME280;41329;41.594;23.810;2023-02-04T01:39:21;95074.41;;;2.03;57.07
55466;BME280;41329;41.594;23.810;2023-02-04T01:41:46;95068.47;;;2.01;56.74
55466;BME280;41329;41.594;23.810;2023-02-04T01:44:12;95072.97;;;2.06;57.09
55466;BME280;41329;41.594;23.810;2023-02-04T01:46:37;95060.78;;;2.03;57.13
55466;BME280;41329;41.594;23.810;2023-02-04T01:49:04;95060.28;;;2.10;56.59
55466;BME280;41329;41.594;23.810;2023-02-04T01:51:30;95060.41;;;2.13;56.94
55466;BME280;41329;41.594;23.810;2023-02-04T01:53:58;95056.22;;;2.16;56.94
55466;BME280;41329;41.594;23.810;2023-02-04T01:56:25;95053.53;;;2.07;56.54
55466;BME280;41329;41.594;23.810;2023-02-04T01:58:51;95064.31;;;1.95;57.02
55466;BME280;41329;41.594;23.810;2023-02-04T02:01:40;95050.50;;;2.00;57.30
55466;BME280;41329;41.594;23.810;2023-02-04T02:04:07;95037.69;;;1.92;57.62
55466;BME280;41329;41.594;23.810;2023-02-04T02:06:33;95038.63;;;1.96;57.32
55466;BME280;41329;41.594;23.810;2023-02-04T02:09:00;95031.09;;;1.93;57.25
55466;BME280;41329;41.594;23.810;2023-02-04T02:11:26;95043.44;;;1.99;57.59
55466;BME280;41329;41.594;23.810;2023-02-04T02:13:52;95031.31;;;1.80;58.16
55466;BME280;41329;41.594;23.810;2023-02-04T02:16:18;95035.44;;;1.86;58.32
55466;BME280;41329;41.594;23.810;2023-02-04T02:18:43;95034.66;;;1.85;58.13
55466;BME280;41329;41.594;23.810;2023-02-04T02:21:10;95031.44;;;1.83;57.78
55466;BME280;41329;41.594;23.810;2023-02-04T02:23:49;95038.34;;;1.81;57.80
55466;BME280;41329;41.594;23.810;2023-02-04T02:26:17;95016.38;;;1.69;57.52
55466;BME280;41329;41.594;23.810;2023-02-04T02:28:44;95028.75;;;1.66;57.64
55466;BME280;41329;41.594;23.810;2023-02-04T02:31:12;95028.75;;;1.75;57.53
55466;BME280;41329;41.594;23.810;2023-02-04T02:33:38;95025.84;;;1.71;57.68
55466;BME280;41329;41.594;23.810;2023-02-04T02:36:04;95015.75;;;1.72;57.87
55466;BME280;41329;41.594;23.810;2023-02-04T02:38:30;95016.53;;;1.72;58.32
55466;BME280;41329;41.594;23.810;2023-02-04T02:40:56;95010.47;;;1.67;58.13
55466;BME280;41329;41.594;23.810;2023-02-04T02:43:24;95008.69;;;1.62;58.00
55466;BME280;41329;41.594;23.810;2023-02-04T02:45:51;95007.25;;;1.65;58.17
55466;BME280;41329;41.594;23.810;2023-02-04T02:48:17;95008.69;;;1.62;57.98
55466;BME280;41329;41.594;23.810;2023-02-04T02:50:43;94981.47;;;1.54;58.13
55466;BME280;41329;41.594;23.810;2023-02-04T02:53:11;94963.81;;;1.51;58.06
55466;BME280;41329;41.594;23.810;2023-02-04T02:55:38;94939.78;;;1.45;58.48
55466;BME280;41329;41.594;23.810;2023-02-04T02:58:04;94966.03;;;1.66;58.34
55466;BME280;41329;41.594;23.810;2023-02-04T03:00:34;94968.94;;;1.61;58.58
55466;BME280;41329;41.594;23.810;2023-02-04T03:03:07;94975.66;;;1.55;58.09
55466;BME280;41329;41.594;23.810;2023-02-04T03:05:40;94962.22;;;1.50;58.12
55466;BME280;41329;41.594;23.810;2023-02-04T03:08:07;94954.84;;;1.51;57.98
55466;BME280;41329;41.594;23.810;2023-02-04T03:10:34;94947.16;;;1.44;58.12
55466;BME280;41329;41.594;23.810;2023-02-04T03:13:00;94933.06;;;1.34;58.08
55466;BME280;41329;41.594;23.810;2023-02-04T03:15:26;94950.34;;;1.46;58.20
55466;BME280;41329;41.594;23.810;2023-02-04T03:17:52;94910.63;;;1.37;58.18
55466;BME280;41329;41.594;23.810;2023-02-04T03:20:23;94933.22;;;1.46;58.02
55466;BME280;41329;41.594;23.810;2023-02-04T03:22:49;94942.66;;;1.48;57.63
55466;BME280;41329;41.594;23.810;2023-02-04T03:25:15;94953.91;;;1.21;57.74
55466;BME280;41329;41.594;23.810;2023-02-04T03:27:41;94947.69;;;1.21;58.21
55466;BME280;41329;41.594;23.810;2023-02-04T03:30:07;94954.91;;;1.17;58.47
55466;BME280;41329;41.594;23.810;2023-02-04T03:32:33;94953.63;;;1.14;58.42
55466;BME280;41329;41.594;23.810;2023-02-04T03:34:58;94908.44;;;0.79;58.27
55466;BME280;41329;41.594;23.810;2023-02-04T03:37:24;94927.19;;;0.98;58.75
55466;BME280;41329;41.594;23.810;2023-02-04T03:39:49;94936.97;;;0.90;59.41
55466;BME280;41329;41.594;23.810;2023-02-04T03:42:15;94933.44;;;0.98;59.57
55466;BME280;41329;41.594;23.810;2023-02-04T03:44:42;94926.53;;;0.92;59.21
55466;BME280;41329;41.594;23.810;2023-02-04T03:47:07;94931.84;;;0.97;59.33
55466;BME280;41329;41.594;23.810;2023-02-04T03:49:33;94917.41;;;0.97;59.02
55466;BME280;41329;41.594;23.810;2023-02-04T03:52:00;94908.13;;;0.89;59.14
55466;BME280;41329;41.594;23.810;2023-02-04T03:54:25;94921.91;;;0.84;59.58
55466;BME280;41329;41.594;23.810;2023-02-04T03:56:50;94921.75;;;0.89;59.78
55466;BME280;41329;41.594;23.810;2023-02-04T03:59:16;94918.22;;;0.89;59.31
55466;BME280;41329;41.594;23.810;2023-02-04T04:01:41;94915.63;;;0.92;59.23
55466;BME280;41329;41.594;23.810;2023-02-04T04:04:07;94912.31;;;0.87;59.70
55466;BME280;41329;41.594;23.810;2023-02-04T04:06:32;94911.03;;;0.84;59.77
55466;BME280;41329;41.594;23.810;2023-02-04T04:08:58;94900.59;;;0.86;59.65
55466;BME280;41329;41.594;23.810;2023-02-04T04:11:23;94896.44;;;0.89;59.58
55466;BME280;41329;41.594;23.810;2023-02-04T04:13:48;94857.69;;;0.66;59.48
55466;BME280;41329;41.594;23.810;2023-02-04T04:16:14;94888.56;;;0.87;59.40
55466;BME280;41329;41.594;23.810;2023-02-04T04:18:39;94887.63;;;0.83;59.15
55466;BME280;41329;41.594;23.810;2023-02-04T04:21:05;94878.69;;;0.66;59.25
55466;BME280;41329;41.594;23.810;2023-02-04T04:23:30;94892.59;;;0.73;59.15
55466;BME280;41329;41.594;23.810;2023-02-04T04:25:55;94882.84;;;0.63;59.12
55466;BME280;41329;41.594;23.810;2023-02-04T04:28:21;94897.25;;;0.72;58.90
55466;BME280;41329;41.594;23.810;2023-02-04T04:30:46;94907.31;;;0.72;59.07
55466;BME280;41329;41.594;23.810;2023-02-04T04:33:12;94891.16;;;0.67;58.73
55466;BME280;41329;41.594;23.810;2023-02-04T04:35:37;94893.25;;;0.61;58.88
55466;BME280;41329;41.594;23.810;2023-02-04T04:38:03;94922.06;;;0.62;59.20
55466;BME280;41329;41.594;23.810;2023-02-04T04:40:28;94924.28;;;0.52;58.92
55466;BME280;41329;41.594;23.810;2023-02-04T04:42:54;94909.06;;;0.34;58.53
55466;BME280;41329;41.594;23.810;2023-02-04T04:45:20;94906.66;;;0.32;59.10
55466;BME280;41329;41.594;23.810;2023-02-04T04:47:45;94929.84;;;0.30;59.60
55466;BME280;41329;41.594;23.810;2023-02-04T04:50:11;94889.53;;;0.23;59.85
55466;BME280;41329;41.594;23.810;2023-02-04T04:52:36;94914.31;;;0.22;60.16
55466;BME280;41329;41.594;23.810;2023-02-04T04:55:03;94899.59;;;0.22;59.97
55466;BME280;41329;41.594;23.810;2023-02-04T04:57:29;94892.56;;;0.22;60.29
55466;BME280;41329;41.594;23.810;2023-02-04T04:59:54;94844.19;;;-0.07;60.57
55466;BME280;41329;41.594;23.810;2023-02-04T05:02:20;94886.41;;;-0.01;60.73
55466;BME280;41329;41.594;23.810;2023-02-04T05:04:45;94896.63;;;-0.07;60.13
55466;BME280;41329;41.594;23.810;2023-02-04T05:07:10;94874.88;;;-0.07;59.99
55466;BME280;41329;41.594;23.810;2023-02-04T05:09:36;94868.03;;;-0.04;60.00
55466;BME280;41329;41.594;23.810;2023-02-04T05:12:01;94860.66;;;-0.04;60.23
55466;BME280;41329;41.594;23.810;2023-02-04T05:14:27;94881.31;;;0.06;60.24
55466;BME280;41329;41.594;23.810;2023-02-04T05:16:52;94868.34;;;0.03;60.22
55466;BME280;41329;41.594;23.810;2023-02-04T05:19:18;94858.91;;;0.00;60.70
55466;BME280;41329;41.594;23.810;2023-02-04T05:21:43;94869.47;;;0.02;60.67
55466;BME280;41329;41.594;23.810;2023-02-04T05:24:09;94869.94;;;0.04;60.40
55466;BME280;41329;41.594;23.810;2023-02-04T05:26:34;94878.44;;;0.11;59.99
55466;BME280;41329;41.594;23.810;2023-02-04T05:29:00;94874.13;;;0.10;59.60
55466;BME280;41329;41.594;23.810;2023-02-04T05:31:25;94875.88;;;0.06;59.92
55466;BME280;41329;41.594;23.810;2023-02-04T05:33:51;94873.78;;;0.03;60.02
55466;BME280;41329;41.594;23.810;2023-02-04T05:36:16;94876.69;;;0.07;60.10
55466;BME280;41329;41.594;23.810;2023-02-04T05:38:42;94864.66;;;-0.01;59.77
55466;BME280;41329;41.594;23.810;2023-02-04T05:41:08;94868.69;;;0.10;59.96
55466;BME280;41329;41.594;23.810;2023-02-04T05:43:33;94812.16;;;-0.36;60.45
55466;BME280;41329;41.594;23.810;2023-02-04T05:46:00;94878.59;;;0.06;60.84
55466;BME280;41329;41.594;23.810;2023-02-04T05:48:25;94864.66;;;-0.01;60.83
55466;BME280;41329;41.594;23.810;2023-02-04T05:50:50;94877.31;;;0.12;61.01
55466;BME280;41329;41.594;23.810;2023-02-04T05:53:16;94875.41;;;0.13;61.06
55466;BME280;41329;41.594;23.810;2023-02-04T05:55:41;94876.34;;;0.08;61.09
55466;BME280;41329;41.594;23.810;2023-02-04T05:58:07;94871.06;;;0.03;60.63
55466;BME280;41329;41.594;23.810;2023-02-04T06:00:32;94856.97;;;-0.16;61.19
55466;BME280;41329;41.594;23.810;2023-02-04T06:02:58;94902.63;;;0.13;61.36
55466;BME280;41329;41.594;23.810;2023-02-04T06:05:23;94873.81;;;0.12;60.61
55466;BME280;41329;41.594;23.810;2023-02-04T06:07:49;94908.22;;;0.16;60.89
55466;BME280;41329;41.594;23.810;2023-02-04T06:10:15;94866.56;;;-0.19;61.38
55466;BME280;41329;41.594;23.810;2023-02-04T06:12:40;94901.34;;;-0.38;63.17
55466;BME280;41329;41.594;23.810;2023-02-04T06:15:06;94903.53;;;-0.48;63.91
55466;BME280;41329;41.594;23.810;2023-02-04T06:17:31;94850.09;;;-0.61;64.89
55466;BME280;41329;41.594;23.810;2023-02-04T06:19:57;94878.03;;;-0.69;65.87
55466;BME280;41329;41.594;23.810;2023-02-04T06:22:24;94899.69;;;-0.47;65.97
55466;BME280;41329;41.594;23.810;2023-02-04T06:24:50;94871.59;;;-0.43;65.57
55466;BME280;41329;41.594;23.810;2023-02-04T06:27:15;94813.44;;;-0.72;65.82
55466;BME280;41329;41.594;23.810;2023-02-04T06:29:48;94880.78;;;-0.13;66.28
55466;BME280;41329;41.594;23.810;2023-02-04T06:32:14;94871.19;;;-0.11;65.85
55466;BME280;41329;41.594;23.810;2023-02-04T06:34:39;94886.16;;;0.17;65.77
55466;BME280;41329;41.594;23.810;2023-02-04T06:37:05;94882.97;;;0.33;65.35
55466;BME280;41329;41.594;23.810;2023-02-04T06:39:30;94865.69;;;0.29;64.72
55466;BME280;41329;41.594;23.810;2023-02-04T06:41:56;94881.53;;;0.61;65.02
55466;BME280;41329;41.594;23.810;2023-02-04T06:44:21;94846.31;;;0.56;64.82
55466;BME280;41329;41.594;23.810;2023-02-04T06:46:47;94878.19;;;0.89;64.86
55466;BME280;41329;41.594;23.810;2023-02-04T06:49:12;94865.66;;;1.05;64.49
55466;BME280;41329;41.594;23.810;2023-02-04T06:51:37;94861.63;;;1.11;64.11
55466;BME280;41329;41.594;23.810;2023-02-04T06:54:03;94869.63;;;1.16;63.77
55466;BME280;41329;41.594;23.810;2023-02-04T06:56:28;94878.75;;;1.29;63.71
55466;BME280;41329;41.594;23.810;2023-02-04T06:58:54;94874.72;;;1.35;63.37
55466;BME280;41329;41.594;23.810;2023-02-04T07:01:19;94866.53;;;1.43;63.15
55466;BME280;41329;41.594;23.810;2023-02-04T07:03:45;94857.16;;;1.53;62.88
55466;BME280;41329;41.594;23.810;2023-02-04T07:06:11;94865.97;;;1.67;62.65
55466;BME280;41329;41.594;23.810;2023-02-04T07:08:36;94860.81;;;1.65;62.56
55466;BME280;41329;41.594;23.810;2023-02-04T07:11:01;94865.16;;;1.66;62.44
55466;BME280;41329;41.594;23.810;2023-02-04T07:13:27;94846.38;;;1.65;62.63
55466;BME280;41329;41.594;23.810;2023-02-04T07:15:52;94862.22;;;1.80;62.49
55466;BME280;41329;41.594;23.810;2023-02-04T07:18:18;94854.34;;;1.78;62.88
55466;BME280;41329;41.594;23.810;2023-02-04T07:20:44;94822.16;;;1.72;63.33
55466;BME280;41329;41.594;23.810;2023-02-04T07:23:10;94874.22;;;2.16;63.24
55466;BME280;41329;41.594;23.810;2023-02-04T07:25:35;94861.97;;;2.22;62.63
55466;BME280;41329;41.594;23.810;2023-02-04T07:28:01;94872.09;;;2.42;62.20
55466;BME280;41329;41.594;23.810;2023-02-04T07:30:29;94862.44;;;2.45;61.39
55466;BME280;41329;41.594;23.810;2023-02-04T07:32:54;94872.50;;;2.53;60.79
55466;BME280;41329;41.594;23.810;2023-02-04T07:35:20;94869.34;;;2.51;61.01
55466;BME280;41329;41.594;23.810;2023-02-04T07:37:45;94862.06;;;2.55;60.72
55466;BME280;41329;41.594;23.810;2023-02-04T07:40:11;94858.34;;;2.59;60.84
55466;BME280;41329;41.594;23.810;2023-02-04T07:42:37;94855.38;;;2.64;61.41
55466;BME280;41329;41.594;23.810;2023-02-04T07:45:02;94854.47;;;2.81;60.24
55466;BME280;41329;41.594;23.810;2023-02-04T07:47:28;94857.31;;;2.84;59.87
55466;BME280;41329;41.594;23.810;2023-02-04T07:49:54;94821.56;;;2.77;60.20
55466;BME280;41329;41.594;23.810;2023-02-04T07:52:22;94850.09;;;3.00;60.36
55466;BME280;41329;41.594;23.810;2023-02-04T07:54:48;94855.16;;;3.10;60.12
55466;BME280;41329;41.594;23.810;2023-02-04T07:57:13;94845.31;;;2.97;59.09
55466;BME280;41329;41.594;23.810;2023-02-04T07:59:39;94829.59;;;2.94;59.54
55466;BME280;41329;41.594;23.810;2023-02-04T08:02:04;94817.66;;;2.99;59.20
55466;BME280;41329;41.594;23.810;2023-02-04T08:04:30;94830.91;;;3.09;59.28
55466;BME280;41329;41.594;23.810;2023-02-04T08:06:55;94833.66;;;3.09;59.58
55466;BME280;41329;41.594;23.810;2023-02-04T08:09:21;94826.94;;;3.18;60.26
55466;BME280;41329;41.594;23.810;2023-02-04T08:11:46;94830.28;;;3.36;60.15
55466;BME280;41329;41.594;23.810;2023-02-04T08:14:12;94817.66;;;3.43;60.20
55466;BME280;41329;41.594;23.810;2023-02-04T08:16:38;94803.41;;;3.38;57.49
55466;BME280;41329;41.594;23.810;2023-02-04T08:19:07;94776.84;;;3.26;58.38
55466;BME280;41329;41.594;23.810;2023-02-04T08:21:32;94810.84;;;3.73;59.00
55466;BME280;41329;41.594;23.810;2023-02-04T08:23:57;94816.44;;;3.77;58.90
55466;BME280;41329;41.594;23.810;2023-02-04T08:26:23;94818.63;;;3.95;58.92
55466;BME280;41329;41.594;23.810;2023-02-04T08:28:48;94811.75;;;4.13;57.37
55466;BME280;41329;41.594;23.810;2023-02-04T08:31:14;94797.94;;;4.22;56.43
55466;BME280;41329;41.594;23.810;2023-02-04T08:33:39;94810.69;;;4.30;55.42
55466;BME280;41329;41.594;23.810;2023-02-04T08:36:06;94790.19;;;4.36;54.40
55466;BME280;41329;41.594;23.810;2023-02-04T08:38:31;94797.59;;;4.35;54.01
55466;BME280;41329;41.594;23.810;2023-02-04T08:40:57;94784.34;;;4.37;54.45
55466;BME280;41329;41.594;23.810;2023-02-04T08:43:24;94802.09;;;4.55;55.06
55466;BME280;41329;41.594;23.810;2023-02-04T08:45:50;94785.38;;;4.72;54.13
55466;BME280;41329;41.594;23.810;2023-02-04T08:48:15;94764.63;;;4.71;53.00
55466;BME280;41329;41.594;23.810;2023-02-04T08:50:41;94781.72;;;4.80;52.96
55466;BME280;41329;41.594;23.810;2023-02-04T08:53:06;94763.16;;;4.89;53.76
55466;BME280;41329;41.594;23.810;2023-02-04T08:55:32;94754.25;;;4.92;53.93
55466;BME280;41329;41.594;23.810;2023-02-04T08:57:57;94773.00;;;5.33;53.66
55466;BME280;41329;41.594;23.810;2023-02-04T09:00:24;94774.31;;;5.55;52.08
55466;BME280;41329;41.594;23.810;2023-02-04T09:02:49;94761.06;;;5.72;51.36
55466;BME280;41329;41.594;23.810;2023-02-04T09:05:15;94768.59;;;5.91;50.03
55466;BME280;41329;41.594;23.810;2023-02-04T09:07:40;94765.31;;;6.01;49.84
55466;BME280;41329;41.594;23.810;2023-02-04T09:10:06;94743.78;;;5.87;49.16
55466;BME280;41329;41.594;23.810;2023-02-04T09:12:31;94745.28;;;6.16;49.08
55466;BME280;41329;41.594;23.810;2023-02-04T09:14:57;94747.34;;;5.72;48.65
55466;BME280;41329;41.594;23.810;2023-02-04T09:17:22;94708.63;;;5.77;50.19
55466;BME280;41329;41.594;23.810;2023-02-04T09:19:48;94744.69;;;6.26;48.46
55466;BME280;41329;41.594;23.810;2023-02-04T09:22:13;94754.00;;;6.21;47.46
55466;BME280;41329;41.594;23.810;2023-02-04T09:24:39;94751.00;;;6.26;47.91
55466;BME280;41329;41.594;23.810;2023-02-04T09:27:05;94739.13;;;6.22;47.58
55466;BME280;41329;41.594;23.810;2023-02-04T09:29:30;94740.31;;;6.40;49.47
55466;BME280;41329;41.594;23.810;2023-02-04T09:31:56;94727.91;;;6.66;48.86
55466;BME280;41329;41.594;23.810;2023-02-04T09:34:22;94709.81;;;6.84;49.79
55466;BME280;41329;41.594;23.810;2023-02-04T09:36:48;94713.31;;;7.22;49.54
55466;BME280;41329;41.594;23.810;2023-02-04T09:39:13;94704.03;;;7.53;49.03
55466;BME280;41329;41.594;23.810;2023-02-04T09:41:39;94693.06;;;7.79;48.46
55466;BME280;41329;41.594;23.810;2023-02-04T09:44:17;94696.66;;;8.09;47.48
55466;BME280;41329;41.594;23.810;2023-02-04T09:46:48;94694.13;;;8.23;47.16
55466;BME280;41329;41.594;23.810;2023-02-04T09:49:14;94671.22;;;7.93;46.31
55466;BME280;41329;41.594;23.810;2023-02-04T09:51:40;94687.34;;;7.91;48.10
55466;BME280;41329;41.594;23.810;2023-02-04T09:54:11;94682.25;;;7.93;48.05
55466;BME280;41329;41.594;23.810;2023-02-04T09:56:37;94657.41;;;7.63;47.69
55466;BME280;41329;41.594;23.810;2023-02-04T09:59:09;94670.53;;;7.73;48.58
55466;BME280;41329;41.594;23.810;2023-02-04T10:01:35;94646.19;;;7.75;48.99
55466;BME280;41329;41.594;23.810;2023-02-04T10:04:01;94652.22;;;8.10;48.77
55466;BME280;41329;41.594;23.810;2023-02-04T10:06:26;94645.75;;;8.55;49.50
55466;BME280;41329;41.594;23.810;2023-02-04T10:08:52;94627.94;;;8.82;47.70
55466;BME280;41329;41.594;23.810;2023-02-04T10:11:19;94636.66;;;9.24;45.45
55466;BME280;41329;41.594;23.810;2023-02-04T10:13:48;94625.78;;;9.45;44.52
55466;BME280;41329;41.594;23.810;2023-02-04T10:16:28;94629.19;;;9.71;45.35
55466;BME280;41329;41.594;23.810;2023-02-04T10:18:59;94595.78;;;9.90;42.88
55466;BME280;41329;41.594;23.810;2023-02-04T10:21:30;94608.09;;;10.00;41.74
55466;BME280;41329;41.594;23.810;2023-02-04T10:23:57;94603.34;;;10.00;41.61
55466;BME280;41329;41.594;23.810;2023-02-04T10:26:26;94585.94;;;9.93;41.29
55466;BME280;41329;41.594;23.810;2023-02-04T10:29:11;94602.94;;;9.98;40.56
55466;BME280;41329;41.594;23.810;2023-02-04T10:31:39;94539.22;;;9.70;40.32
55466;BME280;41329;41.594;23.810;2023-02-04T10:34:08;94595.94;;;10.11;41.06
55466;BME280;41329;41.594;23.810;2023-02-04T10:36:34;94590.47;;;10.25;41.85
55466;BME280;41329;41.594;23.810;2023-02-04T10:39:04;94591.38;;;10.47;40.83
55466;BME280;41329;41.594;23.810;2023-02-04T10:41:30;94579.94;;;10.52;39.75
55466;BME280;41329;41.594;23.810;2023-02-04T10:44:10;94567.72;;;10.56;39.68
55466;BME280;41329;41.594;23.810;2023-02-04T10:46:36;94561.41;;;10.70;39.54
55466;BME280;41329;41.594;23.810;2023-02-04T10:49:16;94576.09;;;10.84;39.84
55466;BME280;41329;41.594;23.810;2023-02-04T10:51:42;94568.94;;;10.73;37.23
55466;BME280;41329;41.594;23.810;2023-02-04T10:54:11;94569.25;;;10.54;39.08
55466;BME280;41329;41.594;23.810;2023-02-04T10:59:35;94554.72;;;10.74;38.59
55466;BME280;41329;41.594;23.810;2023-02-04T11:04:50;94542.91;;;10.88;40.03
55466;BME280;41329;41.594;23.810;2023-02-04T11:07:23;94546.47;;;11.02;37.55
55466;BME280;41329;41.594;23.810;2023-02-04T11:09:48;94549.22;;;10.92;38.28
55466;BME280;41329;41.594;23.810;2023-02-04T11:15:05;94550.78;;;10.89;38.00
55466;BME280;41329;41.594;23.810;2023-02-04T11:17:32;94548.47;;;11.02;39.04
55466;BME280;41329;41.594;23.810;2023-02-04T11:19:58;94538.97;;;11.06;37.99
55466;BME280;41329;41.594;23.810;2023-02-04T11:22:44;94527.13;;;11.06;38.59
55466;BME280;41329;41.594;23.810;2023-02-04T11:25:33;94530.66;;;11.06;39.38
55466;BME280;41329;41.594;23.810;2023-02-04T11:27:59;94522.78;;;11.15;38.77
55466;BME280;41329;41.594;23.810;2023-02-04T11:30:30;94514.47;;;11.08;37.85
55466;BME280;41329;41.594;23.810;2023-02-04T11:33:05;94514.06;;;11.13;37.79
55466;BME280;41329;41.594;23.810;2023-02-04T11:35:59;94516.84;;;11.20;36.59
55466;BME280;41329;41.594;23.810;2023-02-04T11:38:26;94514.44;;;11.12;38.42
55466;BME280;41329;41.594;23.810;2023-02-04T11:40:57;94504.19;;;11.09;37.12
55466;BME280;41329;41.594;23.810;2023-02-04T11:43:23;94515.63;;;11.14;37.60
55466;BME280;41329;41.594;23.810;2023-02-04T11:46:01;94505.75;;;10.99;37.31
55466;BME280;41329;41.594;23.810;2023-02-04T11:48:27;94500.63;;;10.94;37.49
55466;BME280;41329;41.594;23.810;2023-02-04T11:50:57;94490.72;;;11.04;37.85
55466;BME280;41329;41.594;23.810;2023-02-04T11:53:28;94489.94;;;11.10;37.42
55466;BME280;41329;41.594;23.810;2023-02-04T11:55:53;94484.41;;;10.96;37.26
55466;BME280;41329;41.594;23.810;2023-02-04T11:58:19;94463.78;;;10.55;37.39
55466;BME280;41329;41.594;23.810;2023-02-04T12:00:45;94488.22;;;10.36;37.90
55466;BME280;41329;41.594;23.810;2023-02-04T12:03:31;94480.63;;;10.12;38.67
55466;BME280;41329;41.594;23.810;2023-02-04T12:05:59;94478.28;;;10.10;38.70
55466;BME280;41329;41.594;23.810;2023-02-04T12:08:32;94461.13;;;9.80;38.64
55466;BME280;41329;41.594;23.810;2023-02-04T12:11:24;94484.75;;;9.67;38.67
55466;BME280;41329;41.594;23.810;2023-02-04T12:13:56;94433.56;;;9.16;39.77
55466;BME280;41329;41.594;23.810;2023-02-04T12:16:23;94474.81;;;9.56;39.43
55466;BME280;41329;41.594;23.810;2023-02-04T12:18:49;94483.84;;;9.53;39.70
55466;BME280;41329;41.594;23.810;2023-02-04T12:21:16;94479.09;;;9.46;39.62
55466;BME280;41329;41.594;23.810;2023-02-04T12:23:43;94480.28;;;9.45;39.26
55466;BME280;41329;41.594;23.810;2023-02-04T12:26:09;94481.84;;;9.43;40.48
55466;BME280;41329;41.594;23.810;2023-02-04T12:28:34;94478.72;;;9.51;39.19
55466;BME280;41329;41.594;23.810;2023-02-04T12:30:59;94485.84;;;9.52;39.25
55466;BME280;41329;41.594;23.810;2023-02-04T12:33:25;94484.28;;;9.58;39.49
55466;BME280;41329;41.594;23.810;2023-02-04T12:35:51;94485.91;;;9.66;39.47
55466;BME280;41329;41.594;23.810;2023-02-04T12:38:17;94459.50;;;9.69;38.94
55466;BME280;41329;41.594;23.810;2023-02-04T12:40:42;94454.78;;;9.73;38.80
55466;BME280;41329;41.594;23.810;2023-02-04T12:43:08;94462.31;;;9.76;38.28
55466;BME280;41329;41.594;23.810;2023-02-04T12:45:34;94452.03;;;9.76;37.88
55466;BME280;41329;41.594;23.810;2023-02-04T12:47:59;94472.97;;;9.84;38.53
55466;BME280;41329;41.594;23.810;2023-02-04T12:50:25;94478.97;;;10.00;38.60
55466;BME280;41329;41.594;23.810;2023-02-04T12:52:53;94437.53;;;9.97;38.40
55466;BME280;41329;41.594;23.810;2023-02-04T12:55:19;94464.50;;;10.21;38.26
55466;BME280;41329;41.594;23.810;2023-02-04T12:57:45;94474.78;;;10.27;37.46
55466;BME280;41329;41.594;23.810;2023-02-04T13:00:12;94453.72;;;9.98;37.45
55466;BME280;41329;41.594;23.810;2023-02-04T13:02:38;94484.16;;;10.05;37.44
55466;BME280;41329;41.594;23.810;2023-02-04T13:05:04;94482.19;;;10.06;37.71